Time;durP1;ratioP1;P1;durP2;ratioP2;P2;SDS_P1;SDS_P2;PMS_P1;PMS_P2;Temp;Humidity;BMP_temperature;BMP_pressure;BME280_temperature;BME280_humidity;BME280_pressure;Samples;Min_cycle;Max_cycle;Signal;HPM_P1;HPM_P2
2023/12/17 00:00:51;;;;;;;1.23;1.00;;;20.30;77.50;;;;;;2061740;28;20109;-67
2023/12/17 00:01:52;;;;;;;2.03;1.17;;;20.20;77.50;;;;;;2063535;28;20031;-67
2023/12/17 00:02:52;;;;;;;1.52;0.88;;;20.20;77.50;;;;;;2058035;28;20047;-67
2023/12/17 00:03:53;;;;;;;1.20;0.95;;;20.20;77.40;;;;;;2060128;28;20033;-67
2023/12/17 00:04:54;;;;;;;1.98;1.00;;;20.20;77.40;;;;;;2063151;28;20525;-67
2023/12/17 00:05:54;;;;;;;1.80;1.00;;;20.20;77.40;;;;;;2062903;28;20089;-67
2023/12/17 00:06:55;;;;;;;1.00;0.85;;;20.20;77.40;;;;;;2058091;28;20023;-67
2023/12/17 00:07:55;;;;;;;2.55;1.10;;;20.20;77.40;;;;;;2059222;28;20530;-67
2023/12/17 00:08:56;;;;;;;1.80;0.65;;;20.20;77.30;;;;;;2061546;28;20727;-67
2023/12/17 00:09:57;;;;;;;0.88;0.63;;;20.20;77.30;;;;;;2059946;28;20423;-67
2023/12/17 00:10:58;;;;;;;1.65;0.77;;;20.20;77.30;;;;;;2063148;28;20037;-67
2023/12/17 00:11:59;;;;;;;2.10;1.10;;;20.20;77.40;;;;;;2058726;28;20035;-67
2023/12/17 00:12:59;;;;;;;1.15;0.93;;;20.10;77.30;;;;;;2059309;28;20499;-67
2023/12/17 00:14:00;;;;;;;1.17;0.95;;;20.20;77.60;;;;;;2064042;28;20458;-67
2023/12/17 00:15:01;;;;;;;1.85;0.88;;;20.10;77.30;;;;;;2064128;28;20027;-67
2023/12/17 00:16:02;;;;;;;1.67;0.90;;;20.20;77.40;;;;;;2062449;28;20026;-67
2023/12/17 00:17:03;;;;;;;1.52;0.98;;;20.10;77.30;;;;;;2063419;28;20401;-67
2023/12/17 00:18:05;;;;;;;2.85;1.00;;;20.10;77.30;;;;;;2059024;28;20054;-67
2023/12/17 00:19:06;;;;;;;2.13;0.85;;;20.10;77.20;;;;;;2061724;28;20498;-67
2023/12/17 00:20:07;;;;;;;1.30;0.80;;;20.10;77.20;;;;;;2062736;28;20023;-68
2023/12/17 00:21:08;;;;;;;1.08;0.80;;;20.10;77.30;;;;;;2063451;28;20026;-67
2023/12/17 00:22:08;;;;;;;1.88;0.90;;;20.10;77.20;;;;;;2063221;28;20506;-67
2023/12/17 00:23:09;;;;;;;1.88;0.82;;;20.20;77.20;;;;;;2062240;28;20034;-67
2023/12/17 00:24:09;;;;;;;0.98;0.65;;;20.10;77.10;;;;;;2063542;28;20160;-67
2023/12/17 00:25:10;;;;;;;1.65;0.70;;;20.10;77.10;;;;;;2061163;28;20029;-67
2023/12/17 00:26:10;;;;;;;1.40;0.88;;;20.10;77.20;;;;;;2063975;28;20386;-68
2023/12/17 00:27:14;;;;;;;2.63;0.88;;;20.10;77.20;;;;;;2063596;28;20054;-67
2023/12/17 00:28:15;;;;;;;3.22;0.90;;;20.10;77.20;;;;;;2061986;28;20088;-67
2023/12/17 00:29:15;;;;;;;2.63;1.40;;;20.10;77.10;;;;;;2059283;28;20698;-67
2023/12/17 00:30:16;;;;;;;1.33;0.77;;;20.10;77.20;;;;;;2062698;28;20378;-67
2023/12/17 00:31:17;;;;;;;1.70;0.70;;;20.10;77.10;;;;;;2063023;28;20286;-67
2023/12/17 00:32:17;;;;;;;1.92;0.95;;;20.10;77.20;;;;;;2062138;28;20023;-67
2023/12/17 00:33:18;;;;;;;2.17;0.95;;;20.10;77.20;;;;;;2062055;28;20550;-67
2023/12/17 00:34:18;;;;;;;1.33;0.88;;;20.00;77.10;;;;;;2063171;28;20032;-67
2023/12/17 00:35:20;;;;;;;1.35;0.80;;;20.10;77.10;;;;;;2059290;28;20136;-67
2023/12/17 00:36:21;;;;;;;0.73;0.70;;;20.10;77.10;;;;;;2063182;28;20042;-67
2023/12/17 00:37:21;;;;;;;0.80;0.80;;;20.10;77.10;;;;;;2064356;28;20022;-67
2023/12/17 00:38:22;;;;;;;0.80;0.70;;;20.10;77.10;;;;;;2063250;28;20018;-67
2023/12/17 00:39:22;;;;;;;3.25;1.10;;;20.10;77.10;;;;;;2060955;28;20077;-67
2023/12/17 00:40:23;;;;;;;1.67;0.73;;;20.10;77.10;;;;;;2063892;28;20026;-67
2023/12/17 00:41:23;;;;;;;1.45;0.95;;;20.10;77.10;;;;;;2060031;28;20421;-67
2023/12/17 00:42:24;;;;;;;1.27;0.80;;;20.10;77.10;;;;;;2057874;28;20022;-67
2023/12/17 00:43:24;;;;;;;2.05;0.80;;;20.00;77.00;;;;;;2057092;28;20015;-68
2023/12/17 00:44:25;;;;;;;0.88;0.73;;;20.10;77.10;;;;;;2050410;28;20404;-67
2023/12/17 00:45:26;;;;;;;2.05;1.00;;;20.00;77.00;;;;;;2061649;28;20061;-67
2023/12/17 00:46:26;;;;;;;1.70;0.90;;;20.10;77.00;;;;;;2062182;28;20025;-67
2023/12/17 00:47:27;;;;;;;0.77;0.70;;;20.10;77.00;;;;;;2058042;28;20025;-67
2023/12/17 00:48:28;;;;;;;1.63;1.10;;;20.10;77.00;;;;;;2061458;28;20025;-67
2023/12/17 00:49:28;;;;;;;2.15;1.00;;;20.10;77.00;;;;;;2061640;28;20042;-67
2023/12/17 00:50:29;;;;;;;0.95;0.80;;;20.00;76.90;;;;;;2062368;28;20018;-67
2023/12/17 00:51:29;;;;;;;1.83;0.90;;;20.10;77.00;;;;;;2063125;28;20513;-67
2023/12/17 00:52:31;;;;;;;1.70;0.80;;;20.10;77.00;;;;;;2061938;28;20450;-67
2023/12/17 00:53:31;;;;;;;1.77;0.90;;;20.00;77.00;;;;;;2063250;28;20018;-67
2023/12/17 00:54:32;;;;;;;1.48;0.75;;;20.10;77.00;;;;;;2060145;28;20106;-67
2023/12/17 00:55:33;;;;;;;1.35;0.70;;;20.00;76.90;;;;;;2059798;28;20260;-67
2023/12/17 00:56:33;;;;;;;2.25;1.20;;;20.00;76.90;;;;;;2063182;28;20042;-67
2023/12/17 00:57:34;;;;;;;1.10;1.00;;;20.00;76.90;;;;;;2063400;28;20023;-67
2023/12/17 00:58:34;;;;;;;1.58;0.80;;;20.00;76.90;;;;;;2063715;28;20064;-67
2023/12/17 00:59:35;;;;;;;2.30;1.15;;;20.00;76.90;;;;;;2063127;28;20157;-67
2023/12/17 01:00:35;;;;;;;1.85;0.80;;;20.00;76.90;;;;;;2062934;28;20058;-67
2023/12/17 01:01:38;;;;;;;3.38;1.15;;;20.00;76.90;;;;;;2057483;28;20042;-67
2023/12/17 01:02:38;;;;;;;1.50;0.90;;;20.00;76.90;;;;;;2058595;28;20559;-67
2023/12/17 01:03:39;;;;;;;2.10;0.80;;;20.00;76.90;;;;;;2063352;28;20030;-67
2023/12/17 01:04:39;;;;;;;1.50;1.10;;;20.00;76.90;;;;;;2062791;28;20391;-67
2023/12/17 01:05:40;;;;;;;1.85;0.80;;;20.00;76.80;;;;;;2060825;28;20011;-67
2023/12/17 01:06:40;;;;;;;1.17;0.80;;;20.00;76.80;;;;;;2058538;28;20025;-67
2023/12/17 01:07:41;;;;;;;1.80;1.02;;;20.00;76.80;;;;;;2062570;28;20034;-67
2023/12/17 01:08:41;;;;;;;1.70;0.80;;;20.00;76.80;;;;;;2060819;28;20046;-67
2023/12/17 01:09:42;;;;;;;1.98;1.02;;;20.00;76.80;;;;;;2060948;28;20030;-67
2023/12/17 01:10:43;;;;;;;1.15;0.90;;;20.00;76.80;;;;;;2063394;28;20044;-67
2023/12/17 01:11:43;;;;;;;1.08;0.70;;;20.00;76.90;;;;;;2063366;28;20042;-67
2023/12/17 01:12:44;;;;;;;1.58;0.90;;;20.00;76.80;;;;;;2061589;28;20032;-67
2023/12/17 01:13:44;;;;;;;1.98;0.80;;;20.00;76.80;;;;;;2061579;28;20982;-67
2023/12/17 01:14:45;;;;;;;0.95;0.80;;;20.00;76.80;;;;;;2063541;28;20084;-67
2023/12/17 01:15:45;;;;;;;2.47;1.10;;;20.00;76.80;;;;;;2059935;28;20546;-67
2023/12/17 01:16:46;;;;;;;1.25;0.73;;;20.00;76.80;;;;;;2060395;28;20444;-67
2023/12/17 01:17:47;;;;;;;2.42;1.00;;;20.00;76.80;;;;;;2060001;28;20026;-67
2023/12/17 01:18:47;;;;;;;1.65;1.00;;;20.00;76.80;;;;;;2060091;28;20026;-67
2023/12/17 01:19:48;;;;;;;1.05;0.80;;;20.00;76.80;;;;;;2061980;28;20518;-67
2023/12/17 01:20:48;;;;;;;2.20;1.00;;;20.00;76.80;;;;;;2062727;28;20030;-67
2023/12/17 01:21:49;;;;;;;1.63;0.77;;;20.00;76.80;;;;;;2062314;28;20037;-67
2023/12/17 01:22:49;;;;;;;1.05;0.85;;;20.00;76.80;;;;;;2061553;28;20486;-67
2023/12/17 01:23:50;;;;;;;2.40;1.00;;;20.00;76.80;;;;;;2063242;28;20022;-67
2023/12/17 01:24:54;;;;;;;1.30;0.88;;;20.00;76.80;;;;;;2063345;28;20073;-67
2023/12/17 01:25:55;;;;;;;1.15;0.75;;;20.00;76.80;;;;;;2061799;28;20019;-67
2023/12/17 01:26:55;;;;;;;1.05;0.70;;;20.00;76.80;;;;;;2062237;28;20398;-67
2023/12/17 01:27:56;;;;;;;1.23;0.63;;;20.00;76.80;;;;;;2057570;28;20038;-67
2023/12/17 01:28:56;;;;;;;1.00;0.80;;;20.00;76.80;;;;;;2059741;28;20022;-67
2023/12/17 01:29:57;;;;;;;2.03;1.00;;;20.00;76.70;;;;;;2056390;28;20110;-67
2023/12/17 01:30:57;;;;;;;2.35;1.23;;;20.00;76.70;;;;;;2056549;28;20501;-67
2023/12/17 01:31:58;;;;;;;1.45;0.85;;;19.90;76.70;;;;;;2061507;28;20022;-68
2023/12/17 01:32:59;;;;;;;1.95;1.08;;;20.00;76.70;;;;;;2062541;28;20049;-67
2023/12/17 01:34:00;;;;;;;1.50;0.90;;;20.00;76.70;;;;;;2063473;28;20122;-67
2023/12/17 01:35:00;;;;;;;1.90;0.90;;;19.90;76.70;;;;;;2062278;28;20263;-67
2023/12/17 01:36:01;;;;;;;3.28;0.98;;;20.00;76.70;;;;;;2063176;28;20044;-67
2023/12/17 01:37:01;;;;;;;2.28;0.70;;;19.90;76.70;;;;;;2063424;28;20035;-67
2023/12/17 01:38:02;;;;;;;1.67;1.10;;;19.90;76.70;;;;;;2062237;28;20508;-67
2023/12/17 01:39:03;;;;;;;2.28;1.20;;;19.90;76.60;;;;;;2062573;28;20034;-67
2023/12/17 01:40:04;;;;;;;0.73;0.60;;;19.90;76.60;;;;;;2057779;28;20118;-67
2023/12/17 01:41:06;;;;;;;1.88;0.80;;;19.90;76.70;;;;;;2060269;28;20442;-67
2023/12/17 01:42:07;;;;;;;0.80;0.80;;;19.90;76.60;;;;;;2063553;28;20068;-67
2023/12/17 01:43:08;;;;;;;2.35;0.93;;;20.00;76.70;;;;;;2062494;28;20494;-67
2023/12/17 01:44:09;;;;;;;1.63;0.90;;;19.90;76.70;;;;;;2061308;28;20022;-67
2023/12/17 01:45:09;;;;;;;2.50;0.70;;;19.90;76.70;;;;;;2061578;28;20053;-67
2023/12/17 01:46:10;;;;;;;1.05;0.60;;;19.90;76.60;;;;;;2059169;28;20097;-67
2023/12/17 01:47:11;;;;;;;1.73;0.85;;;19.90;76.70;;;;;;2061597;28;20059;-67
2023/12/17 01:48:12;;;;;;;1.50;0.80;;;19.90;76.70;;;;;;2059066;28;20081;-67
2023/12/17 01:49:12;;;;;;;2.03;1.17;;;19.90;76.70;;;;;;2060339;28;20034;-67
2023/12/17 01:50:13;;;;;;;1.13;0.90;;;19.90;76.70;;;;;;2059550;28;20022;-67
2023/12/17 01:51:16;;;;;;;2.35;1.13;;;19.90;76.60;;;;;;2061540;28;20018;-67
2023/12/17 01:52:17;;;;;;;2.17;1.08;;;19.90;76.60;;;;;;2063138;28;20372;-67
2023/12/17 01:53:17;;;;;;;2.03;0.90;;;19.90;76.60;;;;;;2062508;28;20022;-67
2023/12/17 01:54:19;;;;;;;1.63;1.00;;;19.90;76.60;;;;;;2058994;28;20114;-67
2023/12/17 01:55:19;;;;;;;0.95;0.70;;;19.90;76.50;;;;;;2062747;28;20030;-67
2023/12/17 01:56:20;;;;;;;2.25;0.60;;;19.90;76.50;;;;;;2058559;28;20551;-67
2023/12/17 01:57:20;;;;;;;2.25;1.02;;;19.90;76.50;;;;;;2060796;28;20025;-67
2023/12/17 01:58:22;;;;;;;1.70;1.00;;;19.90;76.50;;;;;;2057760;28;20236;-67
2023/12/17 01:59:22;;;;;;;1.40;0.98;;;19.90;76.50;;;;;;2059644;28;20081;-67
2023/12/17 02:00:24;;;;;;;0.93;0.70;;;19.90;76.50;;;;;;2063554;28;20479;-67
2023/12/17 02:01:25;;;;;;;1.20;0.77;;;19.90;76.50;;;;;;2061060;28;20022;-67
2023/12/17 02:02:26;;;;;;;2.53;0.90;;;19.90;76.50;;;;;;2057204;28;20178;-67
2023/12/17 02:03:26;;;;;;;2.05;1.10;;;19.90;76.50;;;;;;2063188;28;20049;-67
2023/12/17 02:04:27;;;;;;;1.17;0.90;;;19.90;76.50;;;;;;2062938;28;20043;-67
2023/12/17 02:05:28;;;;;;;2.10;1.20;;;19.90;76.50;;;;;;2060384;28;20061;-67
2023/12/17 02:06:29;;;;;;;1.00;0.70;;;19.90;76.50;;;;;;2063105;28;20435;-67
2023/12/17 02:07:30;;;;;;;1.83;0.95;;;19.90;76.50;;;;;;2060977;28;20023;-67
2023/12/17 02:08:30;;;;;;;3.38;1.13;;;19.90;76.50;;;;;;2062898;28;20049;-67
2023/12/17 02:09:31;;;;;;;1.95;1.00;;;19.90;76.50;;;;;;2062402;28;20498;-67
2023/12/17 02:10:32;;;;;;;2.15;0.90;;;19.90;77.10;;;;;;2062671;28;20018;-67
2023/12/17 02:11:32;;;;;;;0.80;0.70;;;19.80;76.40;;;;;;2061132;28;20037;-68
2023/12/17 02:12:33;;;;;;;2.08;0.93;;;19.90;76.50;;;;;;2060077;28;20023;-67
2023/12/17 02:13:33;;;;;;;1.23;0.85;;;19.90;76.50;;;;;;2061985;28;20341;-67
2023/12/17 02:14:34;;;;;;;2.42;1.00;;;19.90;76.50;;;;;;2058575;28;20072;-67
2023/12/17 02:15:34;;;;;;;1.60;1.35;;;19.90;76.50;;;;;;2059457;28;20019;-67
2023/12/17 02:16:35;;;;;;;1.33;0.90;;;19.90;76.50;;;;;;2058230;28;20028;-67
2023/12/17 02:17:35;;;;;;;1.33;0.80;;;19.80;76.40;;;;;;2061767;28;20026;-67
2023/12/17 02:18:36;;;;;;;1.20;0.60;;;19.90;76.50;;;;;;2061752;28;20044;-67
2023/12/17 02:19:36;;;;;;;0.80;0.75;;;19.80;76.50;;;;;;2063299;28;20015;-67
2023/12/17 02:20:37;;;;;;;1.33;1.08;;;19.80;76.50;;;;;;2061512;28;20518;-67
2023/12/17 02:21:38;;;;;;;2.05;1.00;;;19.80;76.40;;;;;;2062650;28;20460;-67
2023/12/17 02:22:38;;;;;;;2.05;1.05;;;19.80;76.40;;;;;;2060738;28;20046;-67
2023/12/17 02:23:39;;;;;;;1.20;0.60;;;19.80;76.40;;;;;;2056048;28;20694;-67
2023/12/17 02:24:40;;;;;;;2.17;0.80;;;19.80;76.40;;;;;;2061040;28;20083;-67
2023/12/17 02:25:40;;;;;;;3.10;0.95;;;19.80;76.40;;;;;;2061803;28;20014;-68
2023/12/17 02:26:42;;;;;;;3.00;1.05;;;19.80;76.40;;;;;;2058831;28;20088;-67
2023/12/17 02:27:43;;;;;;;1.95;1.00;;;19.80;76.40;;;;;;2060498;28;20425;-67
2023/12/17 02:28:47;;;;;;;0.90;0.80;;;19.80;76.30;;;;;;2062398;28;20151;-67
2023/12/17 02:29:48;;;;;;;1.98;1.00;;;19.80;76.30;;;;;;2062970;28;20014;-67
2023/12/17 02:30:49;;;;;;;2.70;1.25;;;19.80;76.30;;;;;;2061626;28;20031;-67
2023/12/17 02:31:49;;;;;;;1.65;0.98;;;19.80;76.30;;;;;;2062286;28;20556;-67
2023/12/17 02:32:51;;;;;;;3.20;1.08;;;19.80;76.30;;;;;;2061772;28;20113;-67
2023/12/17 02:33:51;;;;;;;2.58;0.93;;;19.80;76.30;;;;;;2060977;28;20122;-67
2023/12/17 02:34:52;;;;;;;1.02;0.80;;;19.80;76.30;;;;;;2058921;28;20111;-67
2023/12/17 02:35:53;;;;;;;3.00;1.33;;;19.80;76.30;;;;;;2060671;28;20268;-67
2023/12/17 02:36:53;;;;;;;1.13;0.85;;;19.80;76.40;;;;;;2057202;28;20077;-67
2023/12/17 02:37:54;;;;;;;1.80;1.10;;;19.80;76.30;;;;;;2063092;28;20081;-67
2023/12/17 02:38:54;;;;;;;1.77;1.27;;;19.80;76.30;;;;;;2060904;28;20030;-67
2023/12/17 02:39:55;;;;;;;3.50;1.23;;;19.80;76.30;;;;;;2057547;28;20102;-67
2023/12/17 02:40:55;;;;;;;2.28;1.10;;;19.80;76.30;;;;;;2060377;28;20561;-67
2023/12/17 02:41:57;;;;;;;1.25;0.80;;;19.80;76.20;;;;;;2061726;28;20026;-67
2023/12/17 02:42:58;;;;;;;1.42;1.02;;;19.80;76.20;;;;;;2062211;28;20390;-67
2023/12/17 02:43:59;;;;;;;2.08;0.85;;;19.80;76.30;;;;;;2062671;28;20034;-67
2023/12/17 02:44:59;;;;;;;1.98;1.10;;;19.80;76.20;;;;;;2060193;28;20062;-67
2023/12/17 02:48:03;;;;;;;3.80;1.33;;;19.80;76.20;;;;;;2067981;28;20412;-54
2023/12/17 02:49:03;;;;;;;2.17;0.88;;;19.80;76.20;;;;;;2069342;28;20026;-52
2023/12/17 02:50:04;;;;;;;1.92;1.10;;;19.80;76.20;;;;;;2067947;28;20030;-51
2023/12/17 02:51:05;;;;;;;1.02;0.70;;;19.80;76.20;;;;;;2065334;28;20023;-53
2023/12/17 02:52:06;;;;;;;1.30;1.20;;;19.80;76.30;;;;;;2064440;28;20029;-51
2023/12/17 02:53:06;;;;;;;1.13;0.82;;;19.80;76.20;;;;;;2069424;28;20057;-51
2023/12/17 02:54:07;;;;;;;1.10;0.82;;;19.80;76.20;;;;;;2070281;28;20038;-54
2023/12/17 02:55:09;;;;;;;1.20;0.85;;;19.80;76.20;;;;;;2069841;28;20062;-52
2023/12/17 02:56:09;;;;;;;1.95;1.25;;;19.80;76.20;;;;;;2068817;28;20060;-54
2023/12/17 02:57:10;;;;;;;1.50;0.90;;;19.80;76.20;;;;;;2069475;28;20032;-54
2023/12/17 02:58:11;;;;;;;2.03;1.30;;;19.90;76.30;;;;;;2068617;28;20054;-51
2023/12/17 02:59:13;;;;;;;2.17;1.00;;;19.80;76.20;;;;;;2069447;28;20042;-51
2023/12/17 03:00:14;;;;;;;2.05;0.95;;;19.80;76.20;;;;;;2069571;28;20455;-54
2023/12/17 03:01:14;;;;;;;1.15;0.90;;;19.80;76.20;;;;;;2070755;28;20018;-53
2023/12/17 03:02:15;;;;;;;2.38;1.10;;;19.80;76.30;;;;;;2068971;28;20116;-54
2023/12/17 03:03:16;;;;;;;1.98;1.20;;;19.80;76.20;;;;;;2071346;28;20037;-52
2023/12/17 03:04:17;;;;;;;2.08;1.30;;;19.80;76.20;;;;;;2071886;28;20018;-54
2023/12/17 03:05:18;;;;;;;1.08;0.80;;;19.80;76.20;;;;;;2071567;28;20022;-53
2023/12/17 03:06:18;;;;;;;2.60;0.80;;;19.80;76.20;;;;;;2070963;28;20438;-54
2023/12/17 03:07:19;;;;;;;1.95;1.00;;;19.80;76.20;;;;;;2071204;28;20029;-55
2023/12/17 03:08:19;;;;;;;3.13;1.23;;;19.80;76.20;;;;;;2071523;28;20022;-51
2023/12/17 03:09:20;;;;;;;1.73;1.00;;;19.70;76.10;;;;;;2072838;28;20503;-55
2023/12/17 03:10:21;;;;;;;1.88;1.05;;;19.70;76.20;;;;;;2071822;28;20495;-52
2023/12/17 03:11:21;;;;;;;1.23;0.88;;;19.70;76.20;;;;;;2065227;28;20101;-54
2023/12/17 03:12:22;;;;;;;1.73;1.10;;;19.70;76.20;;;;;;2069626;28;20025;-54
2023/12/17 03:13:22;;;;;;;3.00;1.13;;;19.70;76.10;;;;;;2072592;28;20424;-54
2023/12/17 03:14:24;;;;;;;1.73;1.05;;;19.70;76.10;;;;;;2071166;28;20301;-52
2023/12/17 03:15:24;;;;;;;2.88;1.13;;;19.70;76.10;;;;;;2068246;28;20268;-54
2023/12/17 03:16:26;;;;;;;1.55;1.10;;;19.70;76.10;;;;;;2072194;28;20446;-51
2023/12/17 03:17:27;;;;;;;2.08;1.52;;;19.70;76.10;;;;;;2067862;28;20014;-52
2023/12/17 03:18:28;;;;;;;1.15;1.02;;;19.70;76.10;;;;;;2071567;28;20024;-54
2023/12/17 03:19:28;;;;;;;1.77;1.33;;;19.80;76.20;;;;;;2071231;28;20392;-54
2023/12/17 03:20:29;;;;;;;2.30;1.02;;;19.70;76.10;;;;;;2070845;28;20448;-54
2023/12/17 03:21:29;;;;;;;3.40;1.10;;;19.70;76.10;;;;;;2071618;28;20540;-54
2023/12/17 03:22:31;;;;;;;1.42;1.00;;;19.70;76.10;;;;;;2070710;28;20029;-54
2023/12/17 03:23:32;;;;;;;1.60;1.00;;;19.70;76.00;;;;;;2070725;28;20014;-54
2023/12/17 03:24:32;;;;;;;2.75;0.93;;;19.70;76.00;;;;;;2071290;28;20109;-52
2023/12/17 03:25:33;;;;;;;2.42;1.00;;;19.70;76.00;;;;;;2070820;28;20053;-51
2023/12/17 03:26:33;;;;;;;1.40;1.10;;;19.70;76.00;;;;;;2071527;28;20072;-54
2023/12/17 03:27:34;;;;;;;1.90;0.90;;;19.70;76.10;;;;;;2071611;28;20416;-54
2023/12/17 03:28:34;;;;;;;1.27;1.10;;;19.70;76.00;;;;;;2070939;28;20504;-53
2023/12/17 03:29:35;;;;;;;1.55;1.05;;;19.70;76.70;;;;;;2067163;28;20037;-51
2023/12/17 03:30:36;;;;;;;2.08;1.15;;;19.70;76.00;;;;;;2069740;28;20022;-51
2023/12/17 03:31:36;;;;;;;1.50;1.02;;;19.70;76.00;;;;;;2070944;28;20025;-51
2023/12/17 03:32:37;;;;;;;1.92;0.88;;;19.70;76.00;;;;;;2072162;28;20108;-53
2023/12/17 03:33:37;;;;;;;1.13;1.00;;;19.70;76.10;;;;;;2071210;28;20069;-53
2023/12/17 03:34:38;;;;;;;2.40;0.82;;;19.70;76.00;;;;;;2071608;28;20041;-51
2023/12/17 03:35:38;;;;;;;1.27;0.80;;;19.60;76.00;;;;;;2068369;28;20018;-51
2023/12/17 03:36:39;;;;;;;2.03;1.30;;;19.70;76.00;;;;;;2071539;28;20022;-51
2023/12/17 03:37:40;;;;;;;1.35;1.00;;;19.70;76.00;;;;;;2071339;28;20370;-54
2023/12/17 03:38:44;;;;;;;1.00;0.90;;;19.60;76.00;;;;;;2071326;28;20458;-53
2023/12/17 03:39:45;;;;;;;2.72;0.82;;;19.70;76.00;;;;;;2069648;28;20335;-50
2023/12/17 03:40:45;;;;;;;1.13;1.00;;;19.70;76.00;;;;;;2068965;28;20435;-51
2023/12/17 03:41:46;;;;;;;2.65;0.80;;;19.70;76.00;;;;;;2070702;28;20499;-54
2023/12/17 03:42:47;;;;;;;2.30;1.13;;;19.70;76.00;;;;;;2070416;28;20097;-54
2023/12/17 03:43:52;;;;;;;2.58;1.10;;;19.60;76.00;;;;;;2068859;28;20034;-54
2023/12/17 03:44:53;;;;;;;2.80;1.10;;;19.70;76.00;;;;;;2071850;28;20096;-52
2023/12/17 03:45:53;;;;;;;1.55;0.93;;;19.70;76.00;;;;;;2072166;28;20461;-54
2023/12/17 03:46:54;;;;;;;2.13;0.77;;;19.60;76.00;;;;;;2069901;28;20041;-55
2023/12/17 03:47:55;;;;;;;0.77;0.77;;;19.70;76.00;;;;;;2070023;28;20433;-53
2023/12/17 03:48:55;;;;;;;1.15;0.75;;;19.70;76.00;;;;;;2071658;28;20472;-52
2023/12/17 03:49:56;;;;;;;2.40;1.20;;;19.60;76.00;;;;;;2071472;28;20639;-52
2023/12/17 03:50:57;;;;;;;2.70;1.00;;;19.60;75.90;;;;;;2071295;28;20089;-53
2023/12/17 03:51:57;;;;;;;2.45;1.02;;;19.70;76.00;;;;;;2071323;28;20030;-55
2023/12/17 03:52:58;;;;;;;1.70;1.00;;;19.60;75.90;;;;;;2071696;28;20065;-53
2023/12/17 03:53:58;;;;;;;1.48;1.17;;;19.70;76.00;;;;;;2071682;28;20025;-53
2023/12/17 03:54:59;;;;;;;1.77;1.00;;;19.70;76.00;;;;;;2071641;28;20037;-54
2023/12/17 03:55:59;;;;;;;1.63;1.00;;;19.70;76.00;;;;;;2071329;28;20034;-51
2023/12/17 03:57:00;;;;;;;2.65;1.52;;;19.60;76.00;;;;;;2068483;28;20132;-52
2023/12/17 03:58:00;;;;;;;1.85;1.00;;;19.70;76.00;;;;;;2070902;28;20029;-54
2023/12/17 03:59:01;;;;;;;1.85;0.80;;;19.70;76.00;;;;;;2070953;28;20507;-54
2023/12/17 04:00:03;;;;;;;1.85;0.93;;;19.60;75.90;;;;;;2072391;28;20029;-55
2023/12/17 04:01:04;;;;;;;1.30;0.80;;;19.60;75.90;;;;;;2071634;28;20477;-52
2023/12/17 04:02:05;;;;;;;2.10;1.00;;;19.60;75.90;;;;;;2071784;28;20296;-52
2023/12/17 04:03:05;;;;;;;1.63;1.10;;;19.60;75.90;;;;;;2070384;28;20026;-52
2023/12/17 04:04:06;;;;;;;1.60;1.17;;;19.60;75.90;;;;;;2069628;28;20022;-54
2023/12/17 04:05:07;;;;;;;1.73;1.20;;;19.60;75.90;;;;;;2071470;28;20075;-51
2023/12/17 04:06:08;;;;;;;1.15;0.93;;;19.60;75.90;;;;;;2071648;28;20395;-52
2023/12/17 04:07:09;;;;;;;2.35;0.90;;;19.60;75.90;;;;;;2070490;28;20020;-52
2023/12/17 04:08:09;;;;;;;1.52;1.08;;;19.60;75.90;;;;;;2071752;28;20053;-53
2023/12/17 04:09:10;;;;;;;2.10;0.95;;;19.50;75.90;;;;;;2071375;28;20030;-55
2023/12/17 04:10:11;;;;;;;1.95;1.10;;;19.60;75.80;;;;;;2072385;28;20211;-52
2023/12/17 04:11:11;;;;;;;2.30;1.17;;;19.60;75.80;;;;;;2070070;28;20037;-54
2023/12/17 04:12:12;;;;;;;0.95;0.75;;;19.60;75.70;;;;;;2071367;28;20040;-53
2023/12/17 04:13:13;;;;;;;3.22;1.10;;;19.70;75.90;;;;;;2071488;28;20037;-52
2023/12/17 04:14:13;;;;;;;1.48;0.80;;;19.60;75.80;;;;;;2065813;28;20026;-51
2023/12/17 04:15:15;;;;;;;1.38;1.20;;;19.60;75.90;;;;;;2071342;28;20030;-52
2023/12/17 04:16:15;;;;;;;1.38;0.90;;;19.60;75.90;;;;;;2071807;28;20025;-51
2023/12/17 04:17:16;;;;;;;1.42;0.90;;;19.60;76.50;;;;;;2070658;28;20129;-54
2023/12/17 04:18:16;;;;;;;2.05;1.20;;;19.60;75.80;;;;;;2071484;28;20077;-51
2023/12/17 04:19:17;;;;;;;1.70;1.15;;;19.60;75.80;;;;;;2071221;28;20033;-51
2023/12/17 04:20:18;;;;;;;1.77;0.90;;;19.60;75.80;;;;;;2071612;28;20503;-52
2023/12/17 04:21:18;;;;;;;2.65;1.10;;;19.60;75.80;;;;;;2070995;28;20057;-51
2023/12/17 04:22:19;;;;;;;3.42;1.08;;;19.60;75.80;;;;;;2071730;28;20057;-54
2023/12/17 04:23:19;;;;;;;1.05;0.93;;;19.60;75.90;;;;;;2067542;28;20010;-55
2023/12/17 04:24:20;;;;;;;1.40;1.15;;;19.60;75.90;;;;;;2071133;28;20075;-52
2023/12/17 04:25:20;;;;;;;1.08;0.98;;;19.60;75.80;;;;;;2071455;28;20034;-53
2023/12/17 04:26:21;;;;;;;2.00;1.10;;;19.60;75.80;;;;;;2071525;28;20022;-54
2023/12/17 04:27:21;;;;;;;2.45;1.00;;;19.50;75.80;;;;;;2071900;28;20033;-50
2023/12/17 04:28:22;;;;;;;1.42;0.80;;;19.50;75.70;;;;;;2070964;28;20029;-52
2023/12/17 04:29:23;;;;;;;2.45;1.13;;;19.60;75.90;;;;;;2071161;28;20115;-53
2023/12/17 04:30:23;;;;;;;2.30;1.20;;;19.60;75.80;;;;;;2072141;28;20052;-51
2023/12/17 04:31:24;;;;;;;1.00;0.90;;;19.60;75.80;;;;;;2065882;28;20191;-54
2023/12/17 04:32:24;;;;;;;1.35;0.95;;;19.60;75.80;;;;;;2071112;28;20030;-51
2023/12/17 04:33:25;;;;;;;3.67;1.45;;;19.60;75.80;;;;;;2071877;28;20285;-53
2023/12/17 04:34:25;;;;;;;1.65;0.93;;;19.60;75.80;;;;;;2071857;28;20034;-55
2023/12/17 04:35:26;;;;;;;1.67;1.00;;;19.50;75.70;;;;;;2071875;28;20026;-55
2023/12/17 04:36:26;;;;;;;1.90;1.00;;;19.60;75.80;;;;;;2071913;28;20084;-50
2023/12/17 04:37:27;;;;;;;1.38;0.95;;;19.60;75.70;;;;;;2071040;28;20032;-52
2023/12/17 04:38:27;;;;;;;1.60;0.95;;;19.60;75.70;;;;;;2066377;28;20076;-52
2023/12/17 04:39:28;;;;;;;2.38;1.25;;;19.60;75.70;;;;;;2069429;28;20105;-51
2023/12/17 04:40:29;;;;;;;2.05;0.70;;;19.60;75.70;;;;;;2065063;28;20535;-51
2023/12/17 04:41:29;;;;;;;1.30;0.85;;;19.60;75.70;;;;;;2067195;28;20033;-51
2023/12/17 04:42:30;;;;;;;1.52;1.08;;;19.60;75.70;;;;;;2068916;28;20053;-53
2023/12/17 04:43:31;;;;;;;2.75;0.90;;;19.50;75.70;;;;;;2066356;28;20018;-52
2023/12/17 04:44:31;;;;;;;3.10;1.10;;;19.50;75.70;;;;;;2066178;28;20435;-51
2023/12/17 04:45:32;;;;;;;1.98;1.05;;;19.50;75.70;;;;;;2065329;28;20592;-54
2023/12/17 04:46:32;;;;;;;2.35;1.25;;;19.50;75.70;;;;;;2067004;28;20026;-54
2023/12/17 04:47:33;;;;;;;1.98;1.00;;;19.50;75.70;;;;;;2070057;28;20424;-53
2023/12/17 04:48:34;;;;;;;1.20;0.80;;;19.50;75.70;;;;;;2066802;28;20025;-52
2023/12/17 04:49:35;;;;;;;1.20;1.10;;;19.50;75.70;;;;;;2070618;28;20384;-54
2023/12/17 04:50:35;;;;;;;1.20;0.90;;;19.50;75.60;;;;;;2067732;28;20033;-51
2023/12/17 04:51:36;;;;;;;1.40;0.82;;;19.60;75.70;;;;;;2070789;28;20021;-51
2023/12/17 04:52:37;;;;;;;1.63;0.80;;;19.50;75.60;;;;;;2066082;28;20018;-51
2023/12/17 04:53:37;;;;;;;2.75;1.17;;;19.50;75.60;;;;;;2066183;28;20021;-51
2023/12/17 04:54:38;;;;;;;1.42;1.10;;;19.50;75.60;;;;;;2066049;28;20057;-53
2023/12/17 04:55:38;;;;;;;1.00;0.90;;;19.50;75.60;;;;;;2068824;28;20018;-53
2023/12/17 04:56:39;;;;;;;2.17;1.48;;;19.50;75.60;;;;;;2065837;28;20033;-53
2023/12/17 04:57:40;;;;;;;1.20;0.90;;;19.50;75.60;;;;;;2066471;28;20041;-54
2023/12/17 04:58:40;;;;;;;1.65;0.98;;;19.60;75.60;;;;;;2067625;28;20311;-54
2023/12/17 04:59:41;;;;;;;1.83;1.10;;;19.40;75.50;;;;;;2067378;28;20492;-51
2023/12/17 05:00:41;;;;;;;3.72;1.02;;;19.50;75.60;;;;;;2066802;28;20049;-51
2023/12/17 05:01:42;;;;;;;1.38;0.80;;;19.50;75.50;;;;;;2069652;28;20364;-54
2023/12/17 05:02:42;;;;;;;2.28;1.00;;;19.60;75.60;;;;;;2065740;28;20032;-54
2023/12/17 05:03:43;;;;;;;2.13;1.00;;;19.60;75.60;;;;;;2066494;28;20057;-53
2023/12/17 05:04:44;;;;;;;1.33;0.90;;;19.50;75.50;;;;;;2070307;28;20388;-52
2023/12/17 05:05:44;;;;;;;1.83;1.23;;;19.50;75.50;;;;;;2071924;28;20109;-51
2023/12/17 05:06:45;;;;;;;2.35;0.80;;;19.50;75.50;;;;;;2069106;28;20022;-54
2023/12/17 05:07:45;;;;;;;2.33;0.90;;;19.50;75.50;;;;;;2066552;28;20026;-53
2023/12/17 05:08:46;;;;;;;1.58;1.00;;;19.50;75.50;;;;;;2066923;28;20026;-55
2023/12/17 05:09:47;;;;;;;1.48;0.80;;;19.50;75.50;;;;;;2068945;28;20046;-55
2023/12/17 05:10:47;;;;;;;1.67;0.90;;;19.50;75.50;;;;;;2065539;28;20030;-52
2023/12/17 05:11:49;;;;;;;0.93;0.82;;;19.50;75.50;;;;;;2066456;28;20049;-51
2023/12/17 05:12:50;;;;;;;1.58;0.85;;;19.50;75.50;;;;;;2070880;28;20392;-52
2023/12/17 05:13:50;;;;;;;1.88;1.02;;;19.50;75.50;;;;;;2070601;28;20121;-54
2023/12/17 05:14:51;;;;;;;1.10;0.90;;;19.50;75.50;;;;;;2068784;28;20132;-52
2023/12/17 05:15:51;;;;;;;1.48;0.80;;;19.50;75.50;;;;;;2065880;28;20424;-52
2023/12/17 05:16:52;;;;;;;1.08;0.98;;;19.50;75.50;;;;;;2067483;28;20406;-53
2023/12/17 05:17:53;;;;;;;0.90;0.80;;;19.50;75.50;;;;;;2071718;28;20061;-55
2023/12/17 05:18:53;;;;;;;1.95;1.00;;;19.50;75.50;;;;;;2067501;28;20034;-51